sim
Sign-in with your pilot id or email,
or register
Callsign
Passwort

Schedule Details

Flight Number: OEO8595
Departure: Lille Airport (LFQQ) at 16:15
Arrival: Munich Airport (EDDM) at 17:45

Weather Information
Getting current METAR information for LFQQ 221930Z AUTO 27007KT CAVOK 18/07 Q1007 NOSIG
Getting current METAR information for EDDM 221950Z VRB01KT CAVOK 17/15 Q1010 NOSIG

Schedule Frequency

Route Map